createdAt,value
2023-03-13T00:00:07.004Z,50.882534
2023-03-13T00:01:06.996Z,50.882534
2023-03-13T03:09:41.059Z,50.875263
2023-03-13T03:10:41.067Z,50.875359
2023-03-13T03:11:41.053Z,50.875420
2023-03-13T03:12:41.046Z,50.875446
2023-03-13T03:13:41.052Z,50.875557
2023-03-13T03:14:41.016Z,50.875416
2023-03-13T03:15:41.046Z,50.875320
2023-03-13T03:16:41.043Z,50.875450
2023-03-13T03:17:40.979Z,50.875450
2023-03-13T03:18:40.995Z,50.875908
2023-03-13T03:19:40.961Z,50.875652
2023-03-13T03:20:40.972Z,50.875652
2023-03-13T03:21:40.933Z,50.875652
2023-03-13T03:22:40.997Z,50.875652
2023-03-13T03:23:40.914Z,50.875652
2023-03-13T03:24:40.922Z,50.875652
2023-03-13T03:25:40.908Z,50.875652
2023-03-13T03:26:40.889Z,50.875652
2023-03-13T03:27:40.873Z,50.875652
2023-03-13T03:28:40.869Z,50.875652
2023-03-13T03:29:40.854Z,50.875652
2023-03-13T03:30:40.851Z,50.875652
2023-03-13T03:31:40.928Z,50.875652
2023-03-13T03:32:40.861Z,50.875652
2023-03-13T03:33:40.818Z,50.875652
2023-03-13T03:34:40.800Z,50.875652
2023-03-13T03:35:40.842Z,50.875652
2023-03-13T03:36:40.775Z,50.875652
2023-03-13T03:37:40.765Z,50.875652
2023-03-13T03:38:40.760Z,50.875652
2023-03-13T03:39:40.753Z,50.875652
2023-03-13T03:40:40.761Z,50.875652
2023-03-13T03:41:40.723Z,50.875652
2023-03-13T03:42:40.724Z,50.875652
2023-03-13T03:43:40.710Z,50.875652
2023-03-13T03:44:40.694Z,50.875652
2023-03-13T03:45:40.753Z,50.875652
2023-03-13T03:46:40.785Z,50.875652
2023-03-13T03:47:40.670Z,50.875652
2023-03-13T03:48:40.655Z,50.875652
2023-03-13T03:49:40.646Z,50.875652
2023-03-13T03:50:40.695Z,50.875652
2023-03-13T03:51:40.681Z,50.875652
2023-03-13T03:52:40.689Z,50.875652
2023-03-13T03:53:40.615Z,50.875652
2023-03-13T03:54:40.596Z,50.875652
2023-03-13T03:55:40.608Z,50.875652
2023-03-13T03:56:40.588Z,50.875652
2023-03-13T03:57:40.571Z,50.875652
2023-03-13T03:58:40.570Z,50.875652
2023-03-13T03:59:40.568Z,50.875652
2023-03-13T04:00:40.570Z,50.875652
2023-03-13T04:01:40.535Z,50.875652
2023-03-13T04:02:40.557Z,50.875652
2023-03-13T04:03:40.687Z,50.875652
2023-03-13T04:04:40.514Z,50.875652
2023-03-13T04:05:40.504Z,50.875652
2023-03-13T04:06:40.479Z,50.875652
2023-03-13T04:07:40.478Z,50.875652
2023-03-13T04:08:40.455Z,50.875652
2023-03-13T04:09:40.450Z,50.875652
2023-03-13T04:10:40.459Z,50.875652
2023-03-13T04:11:40.456Z,50.875652
2023-03-13T04:12:40.422Z,50.875652
2023-03-13T04:13:40.409Z,50.875652
2023-03-13T04:14:40.398Z,50.875652
2023-03-13T04:15:40.403Z,50.875652
2023-03-13T04:16:40.451Z,50.875652
2023-03-13T04:17:40.374Z,50.875652
2023-03-13T04:18:40.359Z,50.875652
2023-03-13T04:19:40.350Z,50.875652
2023-03-13T04:20:40.338Z,50.875652
2023-03-13T04:21:40.350Z,50.875652
2023-03-13T04:22:40.318Z,50.875652
2023-03-13T04:23:40.317Z,50.875652
2023-03-13T04:24:40.301Z,50.875652
2023-03-13T04:25:40.285Z,50.875652
2023-03-13T04:26:40.285Z,50.875652
2023-03-13T04:27:40.276Z,50.875652
2023-03-13T04:28:40.261Z,50.875652
2023-03-13T04:29:40.255Z,50.875652
2023-03-13T04:30:40.270Z,50.875652
2023-03-13T04:31:40.259Z,50.875652
2023-03-13T04:32:40.293Z,50.875652
2023-03-13T04:33:40.210Z,50.875652
2023-03-13T04:34:40.194Z,50.875652
2023-03-13T04:35:40.322Z,50.875652
2023-03-13T04:36:40.205Z,50.875652
2023-03-13T04:37:40.160Z,50.875652
2023-03-13T04:38:40.156Z,50.875652
2023-03-13T04:39:40.150Z,50.875652
2023-03-13T04:40:40.137Z,50.875652
2023-03-13T04:41:40.134Z,50.875652
2023-03-13T04:42:40.122Z,50.875652
2023-03-13T04:43:40.110Z,50.875652
2023-03-13T04:44:42.413Z,50.875652
2023-03-13T04:45:40.080Z,50.875652
2023-03-13T04:46:40.085Z,50.875652
2023-03-13T04:47:40.069Z,50.875652
2023-03-13T04:48:40.056Z,50.875652
2023-03-13T04:49:40.061Z,50.875652
2023-03-13T04:50:40.039Z,50.875652
2023-03-13T04:51:40.040Z,50.875652
2023-03-13T04:52:40.022Z,50.875957
2023-03-13T04:53:40.006Z,50.875820
2023-03-13T04:54:39.996Z,50.875725
2023-03-13T04:55:39.983Z,50.875725
2023-03-13T04:56:43.673Z,50.875702
2023-03-13T04:57:40.965Z,50.875801
2023-03-13T04:58:39.956Z,50.875603
2023-03-13T04:59:39.957Z,50.875530
2023-03-13T05:00:39.936Z,50.875530
2023-03-13T05:01:40.004Z,50.875530
2023-03-13T05:02:39.923Z,50.876431
2023-03-13T05:03:39.913Z,50.875454
2023-03-13T05:04:39.929Z,50.875202
2023-03-13T05:05:39.882Z,50.875797
2023-03-13T05:06:39.883Z,50.875706
2023-03-13T05:07:39.864Z,50.875858
2023-03-13T05:08:39.849Z,50.875748
2023-03-13T05:09:39.850Z,50.876034
2023-03-13T05:10:39.837Z,50.875626
2023-03-13T05:11:39.832Z,50.876144
2023-03-13T05:12:39.818Z,50.876144
2023-03-13T05:13:39.803Z,50.875755
2023-03-13T05:14:39.841Z,50.876392
2023-03-13T05:15:39.788Z,50.876385
2023-03-13T05:16:39.781Z,50.876163
2023-03-13T05:17:39.784Z,50.876202
2023-03-13T05:18:39.773Z,50.876202
2023-03-13T05:19:39.734Z,50.876202
2023-03-13T05:20:39.731Z,50.876102
2023-03-13T05:21:39.732Z,50.876137
2023-03-13T05:22:39.714Z,50.876118
2023-03-13T05:23:39.691Z,50.876026
2023-03-13T05:24:41.848Z,50.876026
2023-03-13T05:25:40.689Z,50.876316
2023-03-13T05:26:39.679Z,50.876133
2023-03-13T05:27:39.660Z,50.876255
2023-03-13T05:28:39.642Z,50.876369
2023-03-13T05:29:39.639Z,50.876045
2023-03-13T05:30:39.766Z,50.875507
2023-03-13T05:31:39.626Z,50.876034
2023-03-13T05:32:39.643Z,50.875961
2023-03-13T05:33:39.612Z,50.875744
2023-03-13T05:34:39.597Z,50.875744
2023-03-13T05:35:39.623Z,50.875744
2023-03-13T05:36:39.594Z,50.875744
2023-03-13T05:37:41.364Z,50.877293
2023-03-13T05:38:40.554Z,50.877293
2023-03-13T05:39:39.543Z,50.875221
2023-03-13T05:40:39.532Z,50.874722
2023-03-13T05:41:39.515Z,50.875000
2023-03-13T05:42:39.517Z,50.875500
2023-03-13T05:43:39.488Z,50.875751
2023-03-13T05:44:39.495Z,50.875645
2023-03-13T05:45:39.469Z,50.875572
2023-03-13T05:46:39.521Z,50.875717
2023-03-13T05:47:39.516Z,50.875931
2023-03-13T05:48:39.443Z,50.876022
2023-03-13T05:49:39.434Z,50.876354
2023-03-13T05:50:39.435Z,50.876560
2023-03-13T05:51:39.437Z,50.876881
2023-03-13T05:52:39.418Z,50.876896
2023-03-13T05:53:39.405Z,50.876503
2023-03-13T05:54:39.397Z,50.877003
2023-03-13T05:55:39.377Z,50.876472
2023-03-13T05:56:39.355Z,50.875805
2023-03-13T05:57:39.370Z,50.875603
2023-03-13T05:58:39.338Z,50.876213
2023-03-13T05:59:39.325Z,50.876228
2023-03-13T06:00:39.325Z,50.876194
2023-03-13T06:01:39.312Z,50.876194
2023-03-13T06:02:39.315Z,50.876545
2023-03-13T06:03:39.433Z,50.876904
2023-03-13T06:04:39.461Z,50.876919
2023-03-13T06:05:39.269Z,50.876919
2023-03-13T06:06:39.256Z,50.876457
2023-03-13T06:07:39.272Z,50.876122
2023-03-13T06:08:39.236Z,50.876122
2023-03-13T06:09:39.223Z,50.876122
2023-03-13T06:10:39.208Z,50.876122
2023-03-13T06:11:39.213Z,50.876122
2023-03-13T06:12:39.231Z,50.876122
2023-03-13T06:13:39.173Z,50.876122
2023-03-13T06:14:39.184Z,50.876122
2023-03-13T06:15:39.168Z,50.876122
2023-03-13T06:16:39.151Z,50.876122
2023-03-13T06:17:39.156Z,50.876122
2023-03-13T06:18:39.124Z,50.876122
2023-03-13T06:19:39.136Z,50.876122
2023-03-13T06:20:40.694Z,50.876122
2023-03-13T06:21:39.106Z,50.876122
2023-03-13T06:22:39.102Z,50.876122
2023-03-13T06:23:39.098Z,50.876122
2023-03-13T06:24:39.086Z,50.876122
2023-03-13T06:25:39.076Z,50.876122
2023-03-13T06:26:39.079Z,50.876122
2023-03-13T06:27:39.043Z,50.876122
2023-03-13T06:28:39.021Z,50.876122
2023-03-13T06:29:39.013Z,50.876122
2023-03-13T06:30:39.017Z,50.876122
2023-03-13T06:31:39.177Z,50.876122
2023-03-13T06:32:39.151Z,50.876122
2023-03-13T06:33:38.971Z,50.876122
2023-03-13T06:34:38.981Z,50.876122
2023-03-13T06:35:54.833Z,50.876122
2023-03-13T06:36:41.064Z,50.876122
2023-03-13T06:37:38.958Z,50.876122
2023-03-13T06:38:38.922Z,50.876122
2023-03-13T06:39:38.921Z,50.876122
2023-03-13T06:40:38.904Z,50.876122
2023-03-13T06:41:38.889Z,50.876122
2023-03-13T06:42:38.897Z,50.876122
2023-03-13T06:43:38.870Z,50.876122
2023-03-13T06:44:39.001Z,50.876122
2023-03-13T06:45:53.727Z,50.876122
2023-03-13T06:46:38.888Z,50.876122
2023-03-13T06:47:41.718Z,50.876122
2023-03-13T06:48:38.822Z,50.876122
2023-03-13T06:49:38.801Z,50.876122
2023-03-13T06:50:38.813Z,50.876122
2023-03-13T06:51:38.786Z,50.876122
2023-03-13T06:52:43.946Z,50.876122
2023-03-13T06:53:40.784Z,50.876122
2023-03-13T06:54:38.763Z,50.876122
2023-03-13T06:55:38.746Z,50.876122
2023-03-13T06:56:38.731Z,50.876122
2023-03-13T06:57:38.739Z,50.876122
2023-03-13T06:58:38.715Z,50.876122
2023-03-13T06:59:38.707Z,50.876122
2023-03-13T07:00:38.753Z,50.876122
2023-03-13T07:01:38.687Z,50.876122
2023-03-13T07:02:38.677Z,50.876122
2023-03-13T07:03:38.723Z,50.876122
2023-03-13T07:04:38.659Z,50.876122
2023-03-13T07:05:38.639Z,50.876122
2023-03-13T07:06:38.629Z,50.876122
2023-03-13T07:07:38.640Z,50.876122
2023-03-13T07:08:38.619Z,50.876122
2023-03-13T07:09:38.595Z,50.876122
2023-03-13T07:10:38.589Z,50.876122
2023-03-13T07:11:38.587Z,50.876122
2023-03-13T07:12:38.572Z,50.876122
2023-03-13T07:13:38.570Z,50.876122
2023-03-13T07:14:38.548Z,50.876122
2023-03-13T07:15:38.552Z,50.876122
2023-03-13T07:16:38.566Z,50.876122
2023-03-13T07:17:38.616Z,50.876122
2023-03-13T07:18:38.511Z,50.876122
2023-03-13T07:19:38.509Z,50.876122
2023-03-13T07:20:38.563Z,50.876122
2023-03-13T07:21:38.469Z,50.876122
2023-03-13T07:22:38.482Z,50.876122
2023-03-13T07:23:38.462Z,50.876122
2023-03-13T07:24:38.479Z,50.876122
2023-03-13T07:25:38.439Z,50.876122
2023-03-13T07:26:38.507Z,50.876122
2023-03-13T07:27:38.440Z,50.876122
2023-03-13T07:28:38.410Z,50.876122
2023-03-13T07:29:38.404Z,50.876122
2023-03-13T07:30:38.377Z,50.876122
2023-03-13T07:31:38.434Z,50.876122
2023-03-13T07:32:38.465Z,50.876122
2023-03-13T07:33:38.355Z,50.876122
2023-03-13T07:34:38.342Z,50.876122
2023-03-13T07:35:40.180Z,50.876122
2023-03-13T07:36:39.418Z,50.876122
2023-03-13T07:37:38.302Z,50.876122
2023-03-13T07:38:38.310Z,50.876122
2023-03-13T07:39:38.279Z,50.876122
2023-03-13T07:40:38.268Z,50.876122
2023-03-13T07:41:39.053Z,50.876122
2023-03-13T07:42:39.261Z,50.876122
2023-03-13T07:43:38.249Z,50.876122
2023-03-13T07:44:38.247Z,50.876122
2023-03-13T07:45:38.274Z,50.876122
2023-03-13T07:46:38.214Z,50.876122
2023-03-13T07:47:38.195Z,50.876122
2023-03-13T07:48:39.198Z,50.876122
2023-03-13T07:49:38.187Z,50.876122
2023-03-13T07:50:38.200Z,50.876122
2023-03-13T07:51:43.990Z,50.876122
2023-03-13T07:52:40.179Z,50.876122
2023-03-13T07:53:38.208Z,50.876122
2023-03-13T07:54:38.214Z,50.876122
2023-03-13T07:55:38.159Z,50.876122
2023-03-13T07:56:38.108Z,50.876122
2023-03-13T07:57:38.104Z,50.876122
2023-03-13T07:58:38.159Z,50.876122
2023-03-13T07:59:38.086Z,50.876122
2023-03-13T08:00:38.069Z,50.876122
2023-03-13T08:01:38.060Z,50.876122
2023-03-13T08:02:38.103Z,50.876122
2023-03-13T08:03:38.167Z,50.876122
2023-03-13T08:04:38.026Z,50.876122
2023-03-13T08:05:38.046Z,50.876122
2023-03-13T08:06:38.022Z,50.876122
2023-03-13T08:07:38.011Z,50.876122
2023-03-13T08:08:37.998Z,50.876122
2023-03-13T08:09:37.974Z,50.876122
2023-03-13T08:10:37.986Z,50.876122
2023-03-13T08:11:37.973Z,50.876122
2023-03-13T08:12:37.954Z,50.876122
2023-03-13T08:13:38.950Z,50.876122
2023-03-13T08:14:37.991Z,50.876122
2023-03-13T08:15:37.922Z,50.876122
2023-03-13T08:16:37.940Z,50.876122
2023-03-13T08:17:37.885Z,50.876122
2023-03-13T08:18:37.888Z,50.876122
2023-03-13T08:19:37.874Z,50.876122
2023-03-13T08:20:37.862Z,50.876122
2023-03-13T08:21:37.852Z,50.876122
2023-03-13T08:22:37.831Z,50.876122
2023-03-13T08:23:37.836Z,50.876122
2023-03-13T08:24:37.804Z,50.876122
2023-03-13T08:25:37.802Z,50.876122
2023-03-13T08:26:37.791Z,50.876122
2023-03-13T08:27:37.778Z,50.876122
2023-03-13T08:28:37.803Z,50.876122
2023-03-13T08:29:37.756Z,50.876122
2023-03-13T08:30:37.795Z,50.876122
2023-03-13T08:31:37.750Z,50.876122
2023-03-13T08:32:37.778Z,50.876122
2023-03-13T08:33:37.736Z,50.876122
2023-03-13T08:34:37.709Z,50.876122
2023-03-13T08:35:37.730Z,50.876122
2023-03-13T08:36:37.690Z,50.876122
2023-03-13T08:37:37.680Z,50.876122
2023-03-13T08:38:37.679Z,50.876122
2023-03-13T08:39:37.658Z,50.876122
2023-03-13T08:40:37.656Z,50.876122
2023-03-13T08:41:37.644Z,50.876122
2023-03-13T08:42:37.630Z,50.876122
2023-03-13T08:43:37.630Z,50.876122
2023-03-13T08:44:37.615Z,50.876122
2023-03-13T08:45:37.609Z,50.876122
2023-03-13T08:46:37.680Z,50.876122
2023-03-13T08:47:37.564Z,50.876122
2023-03-13T08:48:37.572Z,50.876122
2023-03-13T08:49:38.589Z,50.876122
2023-03-13T08:50:37.548Z,50.876122
2023-03-13T08:51:37.535Z,50.876122
2023-03-13T08:52:37.534Z,50.876122
2023-03-13T08:53:37.527Z,50.876122
2023-03-13T08:54:37.523Z,50.876122
2023-03-13T08:55:37.488Z,50.876122
2023-03-13T08:56:37.482Z,50.876122
2023-03-13T08:57:37.481Z,50.876122
2023-03-13T08:58:37.491Z,50.876122
2023-03-13T08:59:37.454Z,50.876122
2023-03-13T09:00:37.453Z,50.876122
2023-03-13T09:01:37.433Z,50.876122
2023-03-13T09:02:37.487Z,50.876122
2023-03-13T09:03:37.479Z,50.876122
2023-03-13T09:04:37.412Z,50.876122
2023-03-13T09:05:53.152Z,50.876122
2023-03-13T09:07:04.768Z,50.876122
2023-03-13T09:07:37.452Z,50.876122
2023-03-13T09:08:37.414Z,50.876122
2023-03-13T09:09:37.430Z,50.876122
2023-03-13T09:10:37.457Z,50.876122
2023-03-13T09:11:37.383Z,50.876122
2023-03-13T09:12:37.391Z,50.876122
2023-03-13T09:13:37.383Z,50.876122
2023-03-13T09:14:37.374Z,50.876122
2023-03-13T09:15:37.403Z,50.876122
2023-03-13T09:16:37.321Z,50.876122
2023-03-13T09:17:37.299Z,50.876122
2023-03-13T09:18:37.355Z,50.876122
2023-03-13T09:19:38.182Z,50.876122
2023-03-13T09:20:37.342Z,50.876122
2023-03-13T09:21:37.301Z,50.876122
2023-03-13T09:22:37.293Z,50.876122
2023-03-13T09:23:37.304Z,50.876122
2023-03-13T09:24:37.254Z,50.876122
2023-03-13T09:25:37.252Z,50.876122
2023-03-13T09:26:37.242Z,50.876122
2023-03-13T09:27:37.220Z,50.876122
2023-03-13T09:28:37.254Z,50.876122
2023-03-13T09:29:37.202Z,50.876122
2023-03-13T09:30:37.229Z,50.876122
2023-03-13T09:31:37.282Z,50.876122
2023-03-13T09:32:37.269Z,50.876122
2023-03-13T09:33:37.238Z,50.876122
2023-03-13T09:34:37.246Z,50.876122
2023-03-13T09:35:37.246Z,50.876122
2023-03-13T09:36:37.155Z,50.876122
2023-03-13T09:37:37.141Z,50.876122
2023-03-13T09:38:37.154Z,50.876122
2023-03-13T09:39:37.142Z,50.876122
2023-03-13T09:40:37.114Z,50.876122
2023-03-13T09:41:37.142Z,50.876122
2023-03-13T09:42:37.081Z,50.876122
2023-03-13T09:43:37.087Z,50.876122
2023-03-13T09:44:37.079Z,50.876122
2023-03-13T09:45:37.103Z,50.876122
2023-03-13T09:46:37.062Z,50.876122
2023-03-13T09:47:37.039Z,50.876122
2023-03-13T09:48:37.077Z,50.876122
2023-03-13T09:49:37.048Z,50.876122
2023-03-13T09:50:37.031Z,50.876122
2023-03-13T09:51:37.014Z,50.876122
2023-03-13T09:52:37.006Z,50.876122
2023-03-13T09:53:37.017Z,50.876122
2023-03-13T09:54:36.989Z,50.876122
2023-03-13T09:55:36.980Z,50.876122
2023-03-13T09:56:36.945Z,50.876122
2023-03-13T09:57:36.964Z,50.876122
2023-03-13T09:58:37.078Z,50.876122
2023-03-13T09:59:36.974Z,50.876122
2023-03-13T10:00:36.932Z,50.876122
2023-03-13T10:01:36.963Z,50.876122
2023-03-13T10:02:36.891Z,50.876122
2023-03-13T10:03:36.897Z,50.876122
2023-03-13T10:04:37.803Z,50.876122
2023-03-13T10:05:36.831Z,50.876122
2023-03-13T10:06:36.885Z,50.876122
2023-03-13T10:07:36.814Z,50.876122
2023-03-13T10:08:36.802Z,50.876122
2023-03-13T10:09:36.875Z,50.876122
2023-03-13T10:10:36.804Z,50.876122
2023-03-13T10:11:36.792Z,50.876122
2023-03-13T10:12:36.789Z,50.876122
2023-03-13T10:13:36.818Z,50.876122
2023-03-13T10:14:36.804Z,50.876122
2023-03-13T10:15:36.761Z,50.876122
2023-03-13T10:16:36.787Z,50.876122
2023-03-13T10:17:37.742Z,50.876122
2023-03-13T10:18:36.729Z,50.876122
2023-03-13T10:19:36.767Z,50.876122
2023-03-13T10:20:36.757Z,50.876122
2023-03-13T10:21:36.680Z,50.876122
2023-03-13T10:22:36.716Z,50.876122
2023-03-13T10:23:36.728Z,50.876122
2023-03-13T10:24:36.693Z,50.876122
2023-03-13T10:25:36.833Z,50.876122
2023-03-13T10:26:36.676Z,50.876122
2023-03-13T10:27:36.606Z,50.876122
2023-03-13T10:28:36.698Z,50.876122
2023-03-13T10:29:36.610Z,50.875343
2023-03-13T10:30:36.899Z,50.875420
2023-03-13T10:31:37.862Z,50.875381
2023-03-13T10:32:36.636Z,50.875271
2023-03-13T10:33:38.486Z,50.875134
2023-03-13T10:34:36.927Z,50.875149
2023-03-13T10:36:14.522Z,50.875149
2023-03-13T10:36:37.551Z,50.875175
2023-03-13T10:38:16.373Z,50.875561
2023-03-13T10:38:41.245Z,50.875561
2023-03-13T10:39:49.841Z,50.875561
2023-03-13T10:40:37.617Z,50.875561
2023-03-13T10:45:26.009Z,50.875561
2023-03-13T10:48:12.348Z,50.875374
2023-03-13T10:48:41.343Z,50.875374
2023-03-13T10:50:56.257Z,50.875267
2023-03-13T10:51:39.698Z,50.875267
2023-03-13T10:52:03.854Z,50.875370
2023-03-13T10:56:00.247Z,50.875298
2023-03-13T10:57:54.644Z,50.875244
2023-03-13T10:58:46.342Z,50.875244
2023-03-13T10:59:38.696Z,50.875549
2023-03-13T11:02:07.768Z,50.875549
2023-03-13T11:03:14.596Z,50.875549
2023-03-13T11:06:40.916Z,50.875549
2023-03-13T11:08:00.759Z,50.875549
2023-03-13T11:09:03.561Z,50.875420
2023-03-13T11:09:28.720Z,50.875385
2023-03-13T11:10:24.114Z,50.875401
2023-03-13T11:11:24.138Z,50.875435
2023-03-13T11:12:24.130Z,50.875683
2023-03-13T11:13:35.506Z,50.875683
2023-03-13T11:14:39.317Z,50.875683
2023-03-13T11:15:25.673Z,50.875683
2023-03-13T11:16:32.269Z,50.875683
2023-03-13T11:17:35.029Z,50.875683
2023-03-13T11:18:30.158Z,50.875683
2023-03-13T11:19:27.091Z,50.875683
2023-03-13T11:20:24.123Z,50.875683
2023-03-13T11:21:25.632Z,50.875683
2023-03-13T11:22:25.140Z,50.875683
2023-03-13T11:23:29.368Z,50.875683
2023-03-13T11:25:10.937Z,50.875683
2023-03-13T11:27:02.022Z,50.875683
2023-03-13T11:27:04.476Z,50.875683
2023-03-13T11:27:58.975Z,50.875683
2023-03-13T11:29:06.655Z,50.875683
2023-03-13T11:29:56.808Z,50.875683
2023-03-13T11:30:56.723Z,50.875683
2023-03-13T11:31:57.587Z,50.875683
2023-03-13T11:32:59.525Z,50.875683
2023-03-13T11:33:57.624Z,50.875683
2023-03-13T11:34:58.319Z,50.875683
2023-03-13T11:35:57.593Z,50.875683
2023-03-13T11:36:57.275Z,50.875683
2023-03-13T11:37:56.382Z,50.875683
2023-03-13T11:38:57.144Z,50.875683
2023-03-13T11:39:56.374Z,50.875683
2023-03-13T11:40:56.369Z,50.875683
2023-03-13T11:41:56.403Z,50.875683
2023-03-13T11:42:56.372Z,50.875683
2023-03-13T11:43:58.640Z,50.875683
2023-03-13T11:44:56.358Z,50.875683
2023-03-13T11:45:56.555Z,50.875683
2023-03-13T11:46:56.296Z,50.875683
2023-03-13T11:47:56.262Z,50.875683
2023-03-13T11:48:56.381Z,50.875683
2023-03-13T11:49:56.346Z,50.875683
2023-03-13T11:50:57.168Z,50.875683
2023-03-13T11:51:56.288Z,50.875683
2023-03-13T11:52:56.254Z,50.875683
2023-03-13T11:53:56.348Z,50.875683
2023-03-13T11:54:56.982Z,50.875683
2023-03-13T11:55:56.242Z,50.875683
2023-03-13T11:56:56.320Z,50.875683
2023-03-13T11:57:56.229Z,50.875683
2023-03-13T11:58:56.217Z,50.875683
2023-03-13T11:59:56.345Z,50.875683
2023-03-13T12:00:56.358Z,50.875683
2023-03-13T12:01:56.215Z,50.875683
2023-03-13T12:02:56.248Z,50.875683
2023-03-13T12:03:56.176Z,50.875683
2023-03-13T12:04:56.090Z,50.875683
2023-03-13T12:05:56.123Z,50.875683
2023-03-13T12:06:56.044Z,50.875683
2023-03-13T12:07:56.074Z,50.875683
2023-03-13T12:08:56.015Z,50.875683
2023-03-13T12:09:56.085Z,50.875683
2023-03-13T12:10:55.993Z,50.875683
2023-03-13T12:11:55.993Z,50.875683
2023-03-13T12:12:55.980Z,50.875683
2023-03-13T12:13:55.974Z,50.875683
2023-03-13T12:14:56.002Z,50.875683
2023-03-13T12:15:55.998Z,50.875683
2023-03-13T12:16:56.020Z,50.875683
2023-03-13T12:17:56.018Z,50.875683
2023-03-13T12:18:55.911Z,50.875683
2023-03-13T12:19:55.941Z,50.875683
2023-03-13T12:20:55.937Z,50.875683
2023-03-13T12:21:55.972Z,50.875683
2023-03-13T12:22:55.877Z,50.875683
2023-03-13T12:23:55.949Z,50.875683
2023-03-13T12:24:55.908Z,50.875683
2023-03-13T12:25:55.870Z,50.875683
2023-03-13T12:26:55.962Z,50.875683
2023-03-13T12:27:56.017Z,50.875683
2023-03-13T12:28:55.809Z,50.875683
2023-03-13T12:29:56.899Z,50.875683
2023-03-13T12:30:55.926Z,50.875683
2023-03-13T12:31:56.373Z,50.875683
2023-03-13T12:32:55.858Z,50.875683
2023-03-13T12:33:55.772Z,50.875683
2023-03-13T12:34:55.771Z,50.875683
2023-03-13T12:35:55.843Z,50.875683
2023-03-13T12:36:55.793Z,50.875683
2023-03-13T12:37:55.746Z,50.875683
2023-03-13T12:38:55.725Z,50.875683
2023-03-13T12:39:56.857Z,50.875683
2023-03-13T12:40:55.655Z,50.875683
2023-03-13T12:41:55.713Z,50.875683
2023-03-13T12:42:55.683Z,50.875683
2023-03-13T12:44:07.869Z,50.875683
2023-03-13T12:44:57.674Z,50.875683
2023-03-13T12:45:55.770Z,50.875683
2023-03-13T12:46:55.682Z,50.875683
2023-03-13T12:47:55.620Z,50.875683
2023-03-13T12:48:55.600Z,50.875683
2023-03-13T12:49:55.671Z,50.875683
2023-03-13T12:50:55.581Z,50.875683
2023-03-13T12:51:55.605Z,50.875683
2023-03-13T12:52:55.586Z,50.875683
2023-03-13T12:53:55.638Z,50.875393
2023-03-13T12:54:55.542Z,50.875336
2023-03-13T12:55:55.542Z,50.875271
2023-03-13T12:56:55.509Z,50.875336
2023-03-13T12:57:55.586Z,50.875408
2023-03-13T12:58:55.537Z,50.875412
2023-03-13T12:59:55.508Z,50.875500
2023-03-13T13:00:56.495Z,50.875549
2023-03-13T13:01:55.578Z,50.875401
2023-03-13T13:02:55.490Z,50.875412
2023-03-13T13:03:55.510Z,50.875214
2023-03-13T13:04:55.542Z,50.875401
2023-03-13T13:05:55.496Z,50.875435
2023-03-13T13:06:55.453Z,50.875099
2023-03-13T13:07:55.419Z,50.875175
2023-03-13T13:08:55.396Z,50.875355
2023-03-13T13:09:55.393Z,50.875504
2023-03-13T13:10:55.406Z,50.875362
2023-03-13T13:11:55.410Z,50.875393
2023-03-13T13:12:55.407Z,50.875595
2023-03-13T13:13:55.356Z,50.875641
2023-03-13T13:14:55.341Z,50.875641
2023-03-13T13:15:55.342Z,50.875641
2023-03-13T13:16:55.323Z,50.875458
2023-03-13T13:17:55.329Z,50.875256
2023-03-13T13:18:55.330Z,50.875141
2023-03-13T13:19:55.309Z,50.875576
2023-03-13T13:20:55.288Z,50.875519
2023-03-13T13:21:55.278Z,50.875385
2023-03-13T13:22:55.277Z,50.875362
2023-03-13T13:23:55.273Z,50.875328
2023-03-13T13:24:55.224Z,50.875366
2023-03-13T13:25:55.253Z,50.875412
2023-03-13T13:26:55.255Z,50.875549
2023-03-13T13:27:55.211Z,50.875443
2023-03-13T13:28:55.227Z,50.875439
2023-03-13T13:29:55.260Z,50.875515
2023-03-13T13:30:56.171Z,50.875507
2023-03-13T13:31:56.220Z,50.875443
2023-03-13T13:32:55.239Z,50.875317
2023-03-13T13:33:55.161Z,50.875225
2023-03-13T13:34:55.212Z,50.875584
2023-03-13T13:35:55.156Z,50.875462
2023-03-13T13:37:00.092Z,50.874989
2023-03-13T13:37:55.171Z,50.875256
2023-03-13T13:38:55.112Z,50.875404
2023-03-13T13:39:55.105Z,50.874992
2023-03-13T13:40:55.168Z,50.875221
2023-03-13T13:41:55.146Z,50.875408
2023-03-13T13:42:55.072Z,50.875370
2023-03-13T13:43:55.140Z,50.875488
2023-03-13T13:44:55.074Z,50.875534
2023-03-13T13:45:55.245Z,50.875462
2023-03-13T13:46:55.138Z,50.875542
2023-03-13T13:47:55.034Z,50.875454
2023-03-13T13:48:55.012Z,50.875515
2023-03-13T13:49:55.007Z,50.875473
2023-03-13T13:50:54.990Z,50.875477
2023-03-13T13:51:54.999Z,50.875298
2023-03-13T13:52:54.987Z,50.875202
2023-03-13T13:53:54.986Z,50.875076
2023-03-13T13:54:54.991Z,50.875374
2023-03-13T13:55:54.967Z,50.875431
2023-03-13T13:56:55.028Z,50.875389
2023-03-13T13:57:54.927Z,50.875404
2023-03-13T13:58:54.980Z,50.875187
2023-03-13T13:59:54.917Z,50.875355
2023-03-13T14:00:54.980Z,50.875202
2023-03-13T14:01:55.040Z,50.875141
2023-03-13T14:02:55.884Z,50.875416
2023-03-13T14:03:54.860Z,50.875275
2023-03-13T14:04:54.916Z,50.875340
2023-03-13T14:05:54.872Z,50.875332
2023-03-13T14:06:54.851Z,50.875408
2023-03-13T14:07:55.134Z,50.875408
2023-03-13T14:08:54.869Z,50.875408
2023-03-13T14:09:54.796Z,50.875408
2023-03-13T14:10:54.791Z,50.875496
2023-03-13T14:11:54.803Z,50.875328
2023-03-13T14:12:54.799Z,50.875267
2023-03-13T14:13:54.819Z,50.875294
2023-03-13T14:14:54.739Z,50.875374
2023-03-13T14:15:54.798Z,50.875298
2023-03-13T14:16:54.734Z,50.875191
2023-03-13T14:17:54.755Z,50.875343
2023-03-13T14:18:54.756Z,50.875298
2023-03-13T14:19:54.764Z,50.875374
2023-03-13T14:20:54.766Z,50.875313
2023-03-13T14:21:54.755Z,50.875626
2023-03-13T14:22:54.696Z,50.875217
2023-03-13T14:23:54.702Z,50.875416
2023-03-13T14:24:54.695Z,50.875526
2023-03-13T14:25:54.673Z,50.875458
2023-03-13T14:26:54.625Z,50.875275
2023-03-13T14:27:55.642Z,50.875175
2023-03-13T14:28:54.637Z,50.875427
2023-03-13T14:29:54.614Z,50.875084
2023-03-13T14:30:54.623Z,50.875404
2023-03-13T14:31:54.706Z,50.875473
2023-03-13T14:32:54.698Z,50.875504
2023-03-13T14:33:54.578Z,50.875469
2023-03-13T14:34:54.564Z,50.875496
2023-03-13T14:35:54.728Z,50.875458
2023-03-13T14:37:01.605Z,50.875278
2023-03-13T14:37:56.537Z,50.875233
2023-03-13T14:38:54.522Z,50.875359
2023-03-13T14:39:54.527Z,50.875420
2023-03-13T14:40:54.527Z,50.875362
2023-03-13T14:41:54.533Z,50.875397
2023-03-13T14:42:54.485Z,50.875347
2023-03-13T14:43:54.478Z,50.875362
2023-03-13T14:44:54.480Z,50.875362